Time;durP1;ratioP1;P1;durP2;ratioP2;P2;SDS_P1;SDS_P2;PMS_P1;PMS_P2;Temp;Humidity;BMP_temperature;BMP_pressure;BME280_temperature;BME280_humidity;BME280_pressure;Samples;Min_cycle;Max_cycle;Signal;HPM_P1;HPM_P2
2023/09/18 00:01:00;;;;;;;2.95;1.20;;;19.50;1.00;;;;;;5007288;28;20034;-85
2023/09/18 00:03:26;;;;;;;1.45;0.70;;;19.40;1.00;;;;;;5000710;28;20033;-86
2023/09/18 00:05:53;;;;;;;0.20;0.20;;;19.40;1.00;;;;;;4998790;28;20447;-86
2023/09/18 00:08:19;;;;;;;1.00;0.47;;;19.30;1.00;;;;;;4998204;28;20341;-83
2023/09/18 00:10:52;;;;;;;1.25;0.50;;;19.20;1.00;;;;;;4998948;28;20038;-84
2023/09/18 00:13:18;;;;;;;1.25;1.00;;;19.20;1.00;;;;;;5002666;28;20034;-83
2023/09/18 00:15:46;;;;;;;0.30;0.30;;;19.20;1.00;;;;;;4999711;28;20034;-85
2023/09/18 00:18:16;;;;;;;9.63;0.95;;;19.30;1.00;;;;;;5004482;28;20042;-86
2023/09/18 00:20:42;;;;;;;0.95;0.63;;;19.30;1.00;;;;;;5004974;28;20038;-86
2023/09/18 00:23:09;;;;;;;3.60;0.52;;;19.40;1.00;;;;;;4998857;28;20038;-86
2023/09/18 00:25:36;;;;;;;0.60;0.55;;;19.50;1.00;;;;;;4998572;28;20029;-85
2023/09/18 00:28:04;;;;;;;2.33;0.47;;;19.70;1.00;;;;;;5008972;28;20117;-85
2023/09/18 00:30:30;;;;;;;0.10;0.10;;;19.90;99.90;;;;;;5000260;28;20455;-85
2023/09/18 00:32:56;;;;;;;0.43;0.38;;;20.10;99.90;;;;;;4994877;28;20030;-85
2023/09/18 00:35:23;;;;;;;0.20;0.20;;;20.20;99.90;;;;;;5008818;28;20034;-84
2023/09/18 00:37:49;;;;;;;0.38;0.38;;;20.20;99.90;;;;;;5004204;28;20384;-85
2023/09/18 00:40:16;;;;;;;0.45;0.40;;;20.20;99.90;;;;;;4998628;28;20026;-85
2023/09/18 00:42:43;;;;;;;0.38;0.30;;;20.20;99.90;;;;;;5002468;28;20046;-86
2023/09/18 00:45:09;;;;;;;0.43;0.28;;;20.30;99.90;;;;;;5001187;28;20053;-86
2023/09/18 00:47:36;;;;;;;0.93;0.93;;;20.40;99.90;;;;;;4999427;28;20559;-86
2023/09/18 00:50:05;;;;;;;1.15;0.43;;;20.60;99.90;;;;;;4996495;28;20034;-85
2023/09/18 00:52:32;;;;;;;0.13;0.13;;;20.70;99.90;;;;;;4997778;28;20026;-85
2023/09/18 00:55:00;;;;;;;0.10;0.10;;;20.80;99.90;;;;;;4996020;28;20029;-85
2023/09/18 00:57:26;;;;;;;0.15;0.15;;;20.80;99.90;;;;;;4997771;28;20029;-85
2023/09/18 00:59:52;;;;;;;0.20;0.20;;;20.90;99.90;;;;;;4996414;28;20046;-84
2023/09/18 01:02:20;;;;;;;1.17;0.45;;;21.00;99.90;;;;;;5005669;28;20046;-83
2023/09/18 01:04:49;;;;;;;0.38;0.38;;;21.10;99.90;;;;;;5009098;28;20041;-85
2023/09/18 01:07:15;;;;;;;0.30;0.30;;;21.20;99.90;;;;;;4995423;28;20034;-83
2023/09/18 01:09:44;;;;;;;0.43;0.30;;;21.30;99.90;;;;;;4998337;28;20174;-83
2023/09/18 01:12:23;;;;;;;0.63;0.50;;;21.40;99.90;;;;;;4999454;28;20046;-85
2023/09/18 01:15:19;;;;;;;0.10;0.10;;;21.40;99.90;;;;;;4995276;28;20034;-85
2023/09/18 01:17:46;;;;;;;0.38;0.38;;;21.40;99.90;;;;;;5001077;28;20034;-85
2023/09/18 01:20:13;;;;;;;4.20;1.08;;;21.50;99.90;;;;;;5002554;28;20030;-85
2023/09/18 01:22:39;;;;;;;0.15;0.15;;;21.60;99.90;;;;;;4998959;28;20046;-85
2023/09/18 01:25:06;;;;;;;0.28;0.28;;;21.60;99.90;;;;;;4998197;28;20371;-85
2023/09/18 01:27:33;;;;;;;0.47;0.47;;;21.70;99.90;;;;;;5003001;28;20030;-85
2023/09/18 01:29:59;;;;;;;0.52;0.30;;;21.80;99.90;;;;;;5000805;28;20034;-85
2023/09/18 01:32:30;;;;;;;0.40;0.40;;;21.80;99.90;;;;;;4995176;28;20057;-82
2023/09/18 01:35:00;;;;;;;0.20;0.20;;;21.80;99.90;;;;;;5003257;28;20037;-84
2023/09/18 01:37:29;;;;;;;0.20;0.20;;;21.80;99.90;;;;;;4993461;28;20034;-82
2023/09/18 01:39:59;;;;;;;0.57;0.38;;;21.90;99.90;;;;;;4998290;28;20026;-85
2023/09/18 01:42:26;;;;;;;0.60;0.38;;;21.90;99.90;;;;;;5002115;28;20054;-83
2023/09/18 01:44:54;;;;;;;0.40;0.40;;;22.00;98.80;;;;;;5006551;28;20018;-82
2023/09/18 01:47:23;;;;;;;1.02;0.38;;;22.00;96.20;;;;;;5001714;28;20030;-83
2023/09/18 01:49:49;;;;;;;0.70;0.65;;;22.10;95.90;;;;;;4995143;28;20474;-85
2023/09/18 01:52:15;;;;;;;0.95;0.70;;;22.10;97.60;;;;;;5002614;28;20049;-84
2023/09/18 01:54:42;;;;;;;0.32;0.30;;;22.20;99.90;;;;;;4996389;28;20566;-82
2023/09/18 01:57:08;;;;;;;0.30;0.30;;;22.20;99.90;;;;;;4996340;28;20026;-83
2023/09/18 01:59:35;;;;;;;0.30;0.20;;;22.20;99.90;;;;;;4991607;28;20380;-82
2023/09/18 02:02:06;;;;;;;1.15;0.82;;;22.20;99.90;;;;;;5002772;28;20186;-82
2023/09/18 02:04:33;;;;;;;0.45;0.45;;;22.10;99.90;;;;;;4999625;28;20030;-84
2023/09/18 02:06:59;;;;;;;0.10;0.10;;;22.00;99.90;;;;;;5006842;28;20042;-83
2023/09/18 02:09:25;;;;;;;0.73;0.57;;;21.90;99.90;;;;;;4998869;28;20022;-82
2023/09/18 02:11:51;;;;;;;2.85;1.30;;;21.70;99.90;;;;;;5000905;28;20061;-85
2023/09/18 02:14:18;;;;;;;0.95;0.68;;;21.60;99.90;;;;;;4998223;28;20022;-85
2023/09/18 02:16:45;;;;;;;0.40;0.40;;;21.50;99.90;;;;;;4993908;28;20033;-85
2023/09/18 02:19:16;;;;;;;0.30;0.30;;;21.40;99.90;;;;;;4995222;28;20037;-85
2023/09/18 02:21:43;;;;;;;0.80;0.40;;;21.30;99.90;;;;;;4994880;28;20038;-84
2023/09/18 02:24:09;;;;;;;2.35;0.95;;;21.20;99.90;;;;;;5004411;28;20373;-84
2023/09/18 02:26:36;;;;;;;0.82;0.50;;;21.20;99.90;;;;;;4998528;28;20029;-84
2023/09/18 02:29:10;;;;;;;0.10;0.10;;;21.10;99.90;;;;;;5003590;28;20026;-84
2023/09/18 02:31:38;;;;;;;0.10;0.10;;;21.00;99.90;;;;;;4997429;28;20033;-84
2023/09/18 02:34:04;;;;;;;0.75;0.38;;;20.90;99.90;;;;;;4994117;28;20033;-85
2023/09/18 02:36:31;;;;;;;0.20;0.20;;;20.80;99.90;;;;;;4998602;28;20034;-84
2023/09/18 02:38:57;;;;;;;0.73;0.65;;;20.80;1.00;;;;;;5000755;28;20033;-84
2023/09/18 02:41:25;;;;;;;1.10;0.65;;;20.70;1.00;;;;;;4997160;28;20373;-82
2023/09/18 02:43:51;;;;;;;0.90;0.77;;;20.60;1.00;;;;;;4998197;28;20030;-85
2023/09/18 02:46:17;;;;;;;0.10;0.10;;;20.50;1.00;;;;;;5002039;28;20038;-85
2023/09/18 02:48:43;;;;;;;0.82;0.80;;;20.40;1.00;;;;;;4998363;28;20442;-83
2023/09/18 02:51:10;;;;;;;1.20;0.40;;;20.40;1.00;;;;;;4996666;28;20053;-84
2023/09/18 02:53:36;;;;;;;1.25;0.95;;;20.40;1.00;;;;;;4999954;28;20038;-84
2023/09/18 02:56:02;;;;;;;0.20;0.20;;;20.40;1.00;;;;;;4999033;28;20037;-84
2023/09/18 02:58:30;;;;;;;0.32;0.32;;;20.30;1.00;;;;;;4994567;28;20043;-82
2023/09/18 03:00:58;;;;;;;0.70;0.70;;;20.30;1.00;;;;;;4997527;28;20046;-83
2023/09/18 03:03:25;;;;;;;0.47;0.40;;;20.30;1.00;;;;;;5005942;28;20046;-82
2023/09/18 03:05:51;;;;;;;0.38;0.30;;;20.30;1.00;;;;;;5006187;28;20045;-84
2023/09/18 03:08:17;;;;;;;0.75;0.75;;;20.20;1.00;;;;;;4995063;28;20050;-84
2023/09/18 03:10:44;;;;;;;0.88;0.63;;;20.20;1.00;;;;;;5003783;28;20092;-85
2023/09/18 03:13:11;;;;;;;0.57;0.43;;;20.20;1.00;;;;;;5003374;28;20046;-85
2023/09/18 03:15:38;;;;;;;0.30;0.30;;;20.30;1.00;;;;;;5006061;28;20053;-85
2023/09/18 03:18:07;;;;;;;0.30;0.30;;;20.20;1.00;;;;;;4999192;28;20041;-84
2023/09/18 03:20:33;;;;;;;0.88;0.40;;;20.30;1.00;;;;;;4996497;28;20047;-85
2023/09/18 03:23:02;;;;;;;0.20;0.20;;;20.30;1.00;;;;;;5003728;28;20375;-84
2023/09/18 03:25:28;;;;;;;0.55;0.28;;;20.30;1.00;;;;;;4996600;28;20037;-81
2023/09/18 03:27:56;;;;;;;9.88;1.35;;;20.40;1.00;;;;;;4991024;28;20030;-85
2023/09/18 03:30:26;;;;;;;1.30;0.80;;;20.40;1.00;;;;;;4999022;28;20050;-82
2023/09/18 03:32:53;;;;;;;0.30;0.30;;;20.50;1.00;;;;;;4993676;28;20038;-86
2023/09/18 03:35:21;;;;;;;0.40;0.40;;;20.50;1.00;;;;;;5008178;28;20049;-84
2023/09/18 03:37:50;;;;;;;0.82;0.82;;;20.40;1.00;;;;;;5000046;28;20045;-83
2023/09/18 03:40:18;;;;;;;0.40;0.40;;;20.40;1.00;;;;;;4995673;28;20039;-84
2023/09/18 03:42:45;;;;;;;0.63;0.35;;;20.50;1.00;;;;;;4996687;28;20046;-82
2023/09/18 03:45:11;;;;;;;0.22;0.22;;;20.50;1.00;;;;;;5011448;28;20369;-81
2023/09/18 03:47:41;;;;;;;0.50;0.50;;;20.50;1.00;;;;;;5005807;28;20038;-84
2023/09/18 03:50:11;;;;;;;0.55;0.55;;;20.50;1.00;;;;;;4993877;28;20974;-85
2023/09/18 03:52:39;;;;;;;0.55;0.55;;;20.60;1.00;;;;;;4991902;28;20042;-85
2023/09/18 03:55:08;;;;;;;1.25;0.40;;;20.60;1.00;;;;;;5016962;28;20030;-82
2023/09/18 03:57:36;;;;;;;0.63;0.28;;;20.60;1.00;;;;;;5000345;28;20035;-85
2023/09/18 04:00:04;;;;;;;0.40;0.40;;;20.60;1.00;;;;;;5010993;28;20361;-83
2023/09/18 04:02:38;;;;;;;4.30;0.80;;;20.60;1.00;;;;;;5009105;28;20041;-83
2023/09/18 04:05:04;;;;;;;4.05;1.40;;;20.70;99.90;;;;;;5000894;28;20030;-81
2023/09/18 04:07:31;;;;;;;1.13;0.98;;;20.70;99.90;;;;;;4998781;28;20049;-79
2023/09/18 04:09:57;;;;;;;0.40;0.40;;;21.00;99.90;;;;;;4995758;28;20062;-82
2023/09/18 04:12:25;;;;;;;2.90;1.75;;;21.10;99.90;;;;;;5002186;28;20061;-85
2023/09/18 04:14:51;;;;;;;2.33;1.00;;;21.10;99.90;;;;;;5000520;28;20773;-82
2023/09/18 04:17:17;;;;;;;2.40;0.93;;;21.10;99.90;;;;;;5002211;28;20037;-85
2023/09/18 04:19:44;;;;;;;0.25;0.25;;;21.10;99.90;;;;;;5004941;28;20042;-83
2023/09/18 04:22:10;;;;;;;0.40;0.30;;;21.10;99.90;;;;;;4994036;28;20046;-84
2023/09/18 04:24:36;;;;;;;0.75;0.43;;;21.10;99.90;;;;;;5010612;28;20045;-83
2023/09/18 04:27:03;;;;;;;0.35;0.25;;;21.00;99.90;;;;;;5000288;28;20045;-84
2023/09/18 04:29:29;;;;;;;0.75;0.55;;;20.90;99.90;;;;;;4997335;28;20045;-82
2023/09/18 04:31:55;;;;;;;0.57;0.52;;;20.70;1.00;;;;;;4999445;28;20109;-84
2023/09/18 04:34:22;;;;;;;0.88;0.60;;;20.60;1.00;;;;;;5009974;28;20060;-84
2023/09/18 04:36:49;;;;;;;0.52;0.50;;;20.40;1.00;;;;;;5004731;28;20042;-81
2023/09/18 04:39:15;;;;;;;2.78;1.45;;;20.30;1.00;;;;;;4998617;28;20074;-84
2023/09/18 04:41:42;;;;;;;1.08;0.57;;;20.30;1.00;;;;;;5009821;28;20038;-84
2023/09/18 04:44:09;;;;;;;0.82;0.82;;;20.20;1.00;;;;;;5004270;28;20045;-89
2023/09/18 04:46:36;;;;;;;7.63;0.75;;;20.20;1.00;;;;;;4992296;28;20038;-85
2023/09/18 04:49:03;;;;;;;0.10;0.10;;;20.10;1.00;;;;;;4997039;28;20380;-84
2023/09/18 04:51:33;;;;;;;0.57;0.25;;;20.10;1.00;;;;;;4996063;28;20053;-84
2023/09/18 04:53:59;;;;;;;2.70;1.08;;;19.90;1.00;;;;;;5008450;28;20030;-86
2023/09/18 04:56:26;;;;;;;0.73;0.73;;;19.80;17.70;;;;;;4997131;28;20039;-86
2023/09/18 04:58:53;;;;;;;1.02;0.45;;;19.70;73.30;;;;;;4991093;28;20783;-86
2023/09/18 05:01:20;;;;;;;0.77;0.77;;;19.60;99.90;;;;;;4999573;28;20054;-83
2023/09/18 05:03:48;;;;;;;2.30;1.08;;;19.50;99.90;;;;;;5008605;28;20345;-83
2023/09/18 05:06:16;;;;;;;1.25;1.08;;;19.40;99.90;;;;;;5001247;28;20371;-85
2023/09/18 05:08:43;;;;;;;2.20;1.95;;;19.40;99.90;;;;;;5001517;28;20068;-88
2023/09/18 05:11:10;;;;;;;1.55;0.65;;;19.40;99.90;;;;;;5002466;28;20025;-86
2023/09/18 05:13:36;;;;;;;1.65;1.02;;;19.40;99.90;;;;;;5003740;28;20029;-86
2023/09/18 05:16:03;;;;;;;0.47;0.30;;;19.40;99.90;;;;;;4995023;28;20034;-86
2023/09/18 05:18:29;;;;;;;0.93;0.30;;;19.40;99.90;;;;;;5006193;28;20022;-88
2023/09/18 05:20:55;;;;;;;1.05;0.82;;;19.40;99.90;;;;;;5001880;28;20029;-89
2023/09/18 05:23:22;;;;;;;0.52;0.30;;;19.30;99.90;;;;;;4999302;28;20038;-86
2023/09/18 05:25:48;;;;;;;0.30;0.30;;;19.40;99.90;;;;;;4998086;28;20041;-87
2023/09/18 05:28:14;;;;;;;7.47;1.25;;;19.30;99.90;;;;;;5009788;28;20053;-87
2023/09/18 05:30:40;;;;;;;1.55;0.95;;;19.30;99.90;;;;;;4998400;28;20042;-87
2023/09/18 05:33:08;;;;;;;1.55;1.10;;;19.40;99.90;;;;;;4996545;28;20467;-88
2023/09/18 05:35:41;;;;;;;2.20;1.77;;;19.30;99.90;;;;;;4995206;28;20035;-84
2023/09/18 05:38:10;;;;;;;0.70;0.38;;;19.30;99.90;;;;;;4996270;28;20034;-88
2023/09/18 05:40:37;;;;;;;3.83;1.17;;;19.30;99.90;;;;;;5007192;28;20030;-89
2023/09/18 05:43:03;;;;;;;1.50;1.05;;;19.40;99.90;;;;;;5006161;28;20383;-89
2023/09/18 05:45:31;;;;;;;0.25;0.25;;;19.30;99.90;;;;;;5013995;28;20474;-87
2023/09/18 05:48:03;;;;;;;1.63;1.30;;;19.30;99.90;;;;;;4997513;28;20041;-85
2023/09/18 05:50:31;;;;;;;0.20;0.20;;;19.40;99.90;;;;;;4995633;28;20041;-86
2023/09/18 05:53:00;;;;;;;0.65;0.40;;;19.40;99.90;;;;;;5005575;28;20049;-86
2023/09/18 05:55:27;;;;;;;1.00;0.65;;;19.40;99.90;;;;;;4998382;28;20030;-86
2023/09/18 05:57:54;;;;;;;1.58;0.50;;;19.40;99.90;;;;;;4995212;28;20244;-85
2023/09/18 06:00:21;;;;;;;1.52;0.88;;;19.40;99.90;;;;;;4999986;28;20038;-88
2023/09/18 06:02:53;;;;;;;0.85;0.63;;;19.40;99.90;;;;;;5005796;28;20042;-85
2023/09/18 06:05:22;;;;;;;1.05;0.88;;;19.30;99.90;;;;;;5000230;28;20033;-89
2023/09/18 06:07:49;;;;;;;3.03;2.17;;;19.40;99.90;;;;;;4996610;28;20277;-89
2023/09/18 06:10:17;;;;;;;5.88;1.75;;;19.30;99.90;;;;;;4999600;28;20487;-89
2023/09/18 06:12:45;;;;;;;0.28;0.28;;;19.40;99.90;;;;;;5003379;28;20046;-89
2023/09/18 06:15:12;;;;;;;1.65;0.70;;;19.40;99.90;;;;;;4999984;28;20021;-89
2023/09/18 06:17:43;;;;;;;5.72;1.13;;;19.40;99.90;;;;;;5006527;28;20037;-87
2023/09/18 06:20:11;;;;;;;0.40;0.35;;;19.40;99.90;;;;;;5004901;28;20037;-88
2023/09/18 06:22:38;;;;;;;0.52;0.52;;;19.40;99.90;;;;;;5002048;28;20352;-87
2023/09/18 06:25:06;;;;;;;0.55;0.55;;;19.40;99.90;;;;;;4993630;28;20038;-87
2023/09/18 06:27:36;;;;;;;0.98;0.47;;;19.40;99.90;;;;;;5004725;28;20474;-87
2023/09/18 06:30:04;;;;;;;0.55;0.55;;;19.50;99.90;;;;;;5001795;28;20046;-86
2023/09/18 06:32:30;;;;;;;6.47;1.70;;;19.50;99.90;;;;;;4997534;28;20391;-86
2023/09/18 06:34:57;;;;;;;0.47;0.47;;;19.50;99.90;;;;;;5007942;28;20041;-85
2023/09/18 06:37:24;;;;;;;0.40;0.40;;;19.50;99.90;;;;;;5000573;28;20057;-86
2023/09/18 06:39:51;;;;;;;0.38;0.38;;;19.50;99.90;;;;;;4995887;28;20514;-86
2023/09/18 06:42:17;;;;;;;0.98;0.75;;;19.60;99.90;;;;;;5001530;28;20033;-87
2023/09/18 06:44:44;;;;;;;0.17;0.17;;;19.60;99.90;;;;;;5005607;28;20026;-88
2023/09/18 06:47:10;;;;;;;1.05;0.85;;;19.60;99.90;;;;;;5006162;28;20026;-87
2023/09/18 06:49:36;;;;;;;1.73;0.80;;;19.70;99.90;;;;;;5004020;28;20026;-87
2023/09/18 06:52:03;;;;;;;1.85;1.40;;;19.70;99.90;;;;;;5008973;28;20038;-88
2023/09/18 06:54:29;;;;;;;1.00;0.52;;;19.80;99.90;;;;;;5003986;28;20316;-89
2023/09/18 06:56:58;;;;;;;4.03;0.40;;;19.80;99.90;;;;;;4999240;28;20030;-88
2023/09/18 06:59:24;;;;;;;0.60;0.60;;;19.90;99.90;;;;;;4995687;28;20483;-88
2023/09/18 07:01:50;;;;;;;0.30;0.30;;;19.90;99.90;;;;;;5002739;28;20042;-86
2023/09/18 07:04:16;;;;;;;2.88;1.15;;;20.00;99.90;;;;;;4996204;28;20041;-89
2023/09/18 07:06:42;;;;;;;1.55;1.10;;;20.00;94.10;;;;;;5004078;28;20026;-86
2023/09/18 07:09:11;;;;;;;0.28;0.28;;;20.10;56.40;;;;;;5007325;28;20022;-88
2023/09/18 07:11:38;;;;;;;1.85;0.95;;;20.10;8.20;;;;;;4989402;28;20387;-88
2023/09/18 07:14:06;;;;;;;1.17;0.82;;;20.20;1.00;;;;;;5000449;28;20026;-89
2023/09/18 07:16:33;;;;;;;0.32;0.32;;;20.30;1.00;;;;;;4994748;28;20738;-88
2023/09/18 07:19:01;;;;;;;0.70;0.70;;;20.40;1.00;;;;;;5000065;28;20034;-89
2023/09/18 07:21:29;;;;;;;0.50;0.47;;;20.50;1.00;;;;;;5008661;28;20026;-88
2023/09/18 07:23:55;;;;;;;0.10;0.10;;;20.60;1.00;;;;;;4998927;28;20041;-87
2023/09/18 07:26:21;;;;;;;1.35;0.40;;;20.60;1.00;;;;;;4996435;28;20042;-85
2023/09/18 07:28:48;;;;;;;3.97;1.17;;;20.70;99.90;;;;;;4999576;28;20431;-87
2023/09/18 07:31:14;;;;;;;0.85;0.75;;;20.80;99.90;;;;;;5007445;28;20251;-86
2023/09/18 07:33:41;;;;;;;2.63;0.52;;;20.90;99.90;;;;;;5019020;28;20045;-88
2023/09/18 07:36:09;;;;;;;0.20;0.20;;;20.90;99.90;;;;;;5009411;28;20482;-86
2023/09/18 07:38:39;;;;;;;0.22;0.22;;;20.90;99.90;;;;;;5015539;28;20030;-86
2023/09/18 07:41:05;;;;;;;0.43;0.43;;;21.00;99.90;;;;;;5019299;28;20410;-86
2023/09/18 07:43:31;;;;;;;1.20;1.10;;;20.90;99.90;;;;;;5004911;28;20030;-88
2023/09/18 07:45:59;;;;;;;0.10;0.10;;;21.00;99.90;;;;;;5016897;28;20046;-85
2023/09/18 07:48:25;;;;;;;0.20;0.20;;;20.90;99.90;;;;;;4987594;28;20068;-83
2023/09/18 07:50:51;;;;;;;0.40;0.20;;;20.90;99.90;;;;;;4981911;28;20038;-88
2023/09/18 07:53:18;;;;;;;0.10;0.10;;;20.90;99.90;;;;;;5011180;28;20034;-87
2023/09/18 07:55:44;;;;;;;0.10;0.10;;;20.80;99.90;;;;;;5004544;28;20626;-87
2023/09/18 07:58:11;;;;;;;0.35;0.32;;;20.90;99.90;;;;;;5000989;28;20034;-87
2023/09/18 08:00:37;;;;;;;0.47;0.30;;;20.80;99.90;;;;;;5013320;28;20479;-86
2023/09/18 08:03:03;;;;;;;2.47;1.10;;;20.80;99.90;;;;;;5001974;28;20053;-86
2023/09/18 08:05:31;;;;;;;0.10;0.10;;;20.80;99.90;;;;;;5000180;28;20018;-89
2023/09/18 08:07:59;;;;;;;0.45;0.30;;;20.80;99.90;;;;;;4996872;28;20035;-84
2023/09/18 08:10:25;;;;;;;0.30;0.30;;;20.80;99.90;;;;;;4999370;28;20053;-80
2023/09/18 08:12:52;;;;;;;1.80;0.73;;;20.70;99.90;;;;;;5003732;28;20045;-86
2023/09/18 08:15:20;;;;;;;2.30;0.70;;;20.70;99.90;;;;;;4997284;28;20038;-79
2023/09/18 08:17:48;;;;;;;1.08;0.35;;;20.70;99.90;;;;;;5000963;28;20045;-81
2023/09/18 08:20:15;;;;;;;0.10;0.10;;;20.70;99.90;;;;;;4994052;28;20496;-87
2023/09/18 08:22:43;;;;;;;0.43;0.40;;;20.70;99.90;;;;;;5003830;28;20046;-89
2023/09/18 08:25:13;;;;;;;0.20;0.20;;;20.80;99.90;;;;;;5010141;28;20045;-86
2023/09/18 08:27:41;;;;;;;1.65;0.32;;;20.80;99.90;;;;;;5001994;28;20038;-87
2023/09/18 08:30:09;;;;;;;0.75;0.75;;;20.70;99.90;;;;;;4998097;28;20395;-87
2023/09/18 08:32:37;;;;;;;0.10;0.10;;;20.70;99.90;;;;;;4994856;28;20042;-82
2023/09/18 08:35:05;;;;;;;0.10;0.10;;;20.70;99.90;;;;;;5000731;28;20041;-87
2023/09/18 08:37:31;;;;;;;0.20;0.20;;;20.70;99.90;;;;;;5003337;28;20033;-85
2023/09/18 08:40:09;;;;;;;1.65;0.80;;;20.70;99.90;;;;;;5010191;28;20053;-83
2023/09/18 08:42:39;;;;;;;1.05;0.95;;;20.70;99.90;;;;;;5008711;28;20038;-85
2023/09/18 08:45:09;;;;;;;0.17;0.17;;;20.70;99.90;;;;;;5002295;28;20250;-85
2023/09/18 08:47:37;;;;;;;0.30;0.30;;;20.70;99.90;;;;;;5002942;28;20042;-83
2023/09/18 08:50:03;;;;;;;0.00;0.00;;;20.80;99.90;;;;;;5002936;28;20030;-84
2023/09/18 08:52:30;;;;;;;0.57;0.57;;;20.80;99.90;;;;;;5008181;28;20050;-83
2023/09/18 08:54:57;;;;;;;0.50;0.38;;;20.80;99.90;;;;;;5002131;28;20030;-86
2023/09/18 08:57:24;;;;;;;0.43;0.43;;;20.80;99.90;;;;;;5004675;28;20026;-85
2023/09/18 08:59:52;;;;;;;1.85;1.08;;;20.70;99.90;;;;;;5000246;28;20045;-86
2023/09/18 09:02:18;;;;;;;0.10;0.10;;;20.80;99.90;;;;;;5008876;28;20046;-89
2023/09/18 09:04:44;;;;;;;0.20;0.20;;;20.80;99.90;;;;;;5001456;28;20026;-89
2023/09/18 09:07:11;;;;;;;0.55;0.55;;;20.80;99.90;;;;;;5004688;28;20030;-90
2023/09/18 09:09:37;;;;;;;0.20;0.20;;;20.80;99.90;;;;;;5010365;28;20026;-86
2023/09/18 09:12:03;;;;;;;0.20;0.20;;;20.90;99.90;;;;;;5011273;28;20221;-88
2023/09/18 09:14:32;;;;;;;0.60;0.60;;;21.00;99.90;;;;;;5006959;28;20026;-89
2023/09/18 09:17:02;;;;;;;2.35;0.80;;;21.10;99.90;;;;;;5005716;28;20018;-88
2023/09/18 09:19:38;;;;;;;1.27;1.13;;;21.20;99.90;;;;;;5012820;28;20037;-89
2023/09/18 09:22:09;;;;;;;0.30;0.30;;;21.30;99.90;;;;;;5018151;28;20030;-88
2023/09/18 09:24:44;;;;;;;0.52;0.52;;;21.30;99.90;;;;;;5000331;28;20037;-88
2023/09/18 09:27:12;;;;;;;0.10;0.10;;;21.30;99.90;;;;;;5000161;28;20030;-87
2023/09/18 09:29:38;;;;;;;0.10;0.10;;;21.20;99.90;;;;;;5007903;28;20037;-86
2023/09/18 09:32:18;;;;;;;0.20;0.20;;;21.30;99.90;;;;;;5015021;28;20025;-87
2023/09/18 09:34:48;;;;;;;0.50;0.47;;;21.30;99.90;;;;;;5017920;28;20028;-87
2023/09/18 09:37:17;;;;;;;0.10;0.10;;;21.30;99.90;;;;;;5010017;28;20029;-86
2023/09/18 09:39:48;;;;;;;0.10;0.10;;;21.20;99.90;;;;;;5008222;28;20487;-85
2023/09/18 09:42:18;;;;;;;13.85;1.65;;;21.30;99.90;;;;;;5012928;28;20038;-88
2023/09/18 09:44:45;;;;;;;0.15;0.15;;;21.30;99.90;;;;;;5004615;28;20042;-85
2023/09/18 09:47:11;;;;;;;0.20;0.20;;;21.30;99.90;;;;;;5021907;28;20030;-86
2023/09/18 09:49:48;;;;;;;0.20;0.20;;;21.30;99.90;;;;;;5007299;28;20034;-82
2023/09/18 09:52:21;;;;;;;0.10;0.10;;;21.40;99.90;;;;;;5009676;28;20030;-86
2023/09/18 09:54:47;;;;;;;0.25;0.25;;;21.30;99.90;;;;;;5007557;28;20021;-87
2023/09/18 09:57:14;;;;;;;0.30;0.30;;;21.20;99.90;;;;;;4997796;28;20035;-87
2023/09/18 09:59:44;;;;;;;0.17;0.17;;;21.20;99.90;;;;;;5013431;28;20029;-86
2023/09/18 10:02:14;;;;;;;0.40;0.40;;;21.10;99.90;;;;;;5016168;28;20029;-85
2023/09/18 10:04:43;;;;;;;6.33;0.43;;;21.10;99.90;;;;;;5008188;28;20038;-87
2023/09/18 10:07:10;;;;;;;0.10;0.10;;;21.10;99.90;;;;;;5016593;28;20026;-86
2023/09/18 10:09:41;;;;;;;0.88;0.55;;;21.10;99.90;;;;;;5009042;28;20037;-86
2023/09/18 10:12:11;;;;;;;1.20;1.00;;;21.20;99.90;;;;;;5017918;28;20443;-86
2023/09/18 10:14:39;;;;;;;0.10;0.10;;;21.30;99.90;;;;;;5015989;28;20454;-87
2023/09/18 10:17:33;;;;;;;0.20;0.20;;;21.50;99.90;;;;;;4996384;28;20037;-86
2023/09/18 10:20:20;;;;;;;0.60;0.60;;;21.70;99.90;;;;;;5003258;28;20053;-86
2023/09/18 10:22:52;;;;;;;0.30;0.25;;;21.70;99.90;;;;;;4995000;28;20041;-85
2023/09/18 10:25:25;;;;;;;0.30;0.30;;;21.80;99.90;;;;;;5000911;28;20030;-86
2023/09/18 10:27:58;;;;;;;0.10;0.10;;;21.90;99.90;;;;;;5007197;28;20038;-87
2023/09/18 10:30:26;;;;;;;0.30;0.20;;;21.90;99.90;;;;;;4999883;28;20042;-86
2023/09/18 10:32:53;;;;;;;0.10;0.10;;;21.90;99.90;;;;;;4996171;28;20415;-86
2023/09/18 10:35:20;;;;;;;0.60;0.45;;;22.00;99.90;;;;;;5009759;28;20048;-87
2023/09/18 10:37:51;;;;;;;1.33;1.23;;;22.00;99.90;;;;;;5009415;28;20040;-85
2023/09/18 10:40:18;;;;;;;0.70;0.70;;;22.10;99.90;;;;;;4997721;28;20486;-85
2023/09/18 10:42:46;;;;;;;0.10;0.10;;;22.30;99.90;;;;;;5005740;28;20050;-86
2023/09/18 10:45:13;;;;;;;1.20;0.57;;;22.30;99.90;;;;;;5000725;28;20038;-86
2023/09/18 10:47:41;;;;;;;0.30;0.30;;;22.40;99.90;;;;;;4998921;28;20049;-87
2023/09/18 10:50:09;;;;;;;0.20;0.20;;;22.60;99.90;;;;;;4997851;28;20703;-86
2023/09/18 10:52:38;;;;;;;5.20;0.38;;;22.80;99.90;;;;;;5011009;28;20049;-85
2023/09/18 10:55:04;;;;;;;0.20;0.20;;;23.10;99.90;;;;;;4999129;28;20034;-86
2023/09/18 10:57:38;;;;;;;0.10;0.10;;;23.30;99.90;;;;;;4996075;28;20035;-85
2023/09/18 11:00:13;;;;;;;0.45;0.45;;;23.50;99.90;;;;;;4997805;28;20041;-86
2023/09/18 11:02:42;;;;;;;0.10;0.10;;;23.60;99.90;;;;;;5000248;28;20061;-86
2023/09/18 11:05:08;;;;;;;0.20;0.20;;;23.50;99.90;;;;;;4994541;28;20229;-87
2023/09/18 11:07:35;;;;;;;2.45;1.10;;;23.60;99.90;;;;;;4999003;28;20031;-86
2023/09/18 11:10:27;;;;;;;2.55;0.63;;;23.70;99.90;;;;;;5002711;28;20026;-87
2023/09/18 11:12:54;;;;;;;0.30;0.30;;;23.80;99.90;;;;;;5006733;28;20046;-87
2023/09/18 11:15:32;;;;;;;0.20;0.20;;;23.80;98.10;;;;;;5013203;28;20029;-88
2023/09/18 11:18:00;;;;;;;0.35;0.35;;;23.70;99.90;;;;;;5003610;28;20366;-85
2023/09/18 11:20:27;;;;;;;0.40;0.40;;;23.50;99.90;;;;;;5006245;28;20052;-86
2023/09/18 11:23:09;;;;;;;0.25;0.25;;;23.40;99.90;;;;;;5003659;28;20049;-88
2023/09/18 11:25:42;;;;;;;0.10;0.10;;;23.50;99.90;;;;;;4985808;28;20042;-87
2023/09/18 11:28:15;;;;;;;0.90;0.88;;;23.60;99.90;;;;;;5003309;28;20041;-88
2023/09/18 11:30:57;;;;;;;0.13;0.13;;;23.70;99.90;;;;;;5005724;28;20058;-86
2023/09/18 11:33:40;;;;;;;0.20;0.20;;;23.70;97.20;;;;;;4999406;28;20038;-85
2023/09/18 11:36:14;;;;;;;0.10;0.10;;;23.90;99.90;;;;;;5002636;28;20447;-84
2023/09/18 11:39:03;;;;;;;0.85;0.82;;;24.20;95.80;;;;;;5003588;28;20034;-83
2023/09/18 11:41:33;;;;;;;2.40;1.10;;;24.30;80.20;;;;;;4998140;28;20471;-84
2023/09/18 11:44:14;;;;;;;0.20;0.20;;;24.50;70.30;;;;;;4998172;28;20459;-86
2023/09/18 11:46:45;;;;;;;0.10;0.10;;;24.30;72.20;;;;;;4997764;28;20034;-83
2023/09/18 11:49:12;;;;;;;0.10;0.10;;;24.40;57.00;;;;;;4993687;28;20107;-81
2023/09/18 11:51:39;;;;;;;0.65;0.57;;;24.40;52.20;;;;;;4998749;28;20026;-83
2023/09/18 11:54:07;;;;;;;0.50;0.40;;;24.50;49.90;;;;;;5010091;28;20396;-84
2023/09/18 11:56:34;;;;;;;1.25;0.40;;;24.40;46.70;;;;;;5002963;28;20312;-83
2023/09/18 11:59:04;;;;;;;0.90;0.75;;;24.40;29.00;;;;;;4997027;28;20037;-87
2023/09/18 12:01:31;;;;;;;0.20;0.20;;;24.30;41.80;;;;;;5000667;28;20030;-82
2023/09/18 12:04:01;;;;;;;1.15;0.73;;;24.30;42.40;;;;;;5000655;28;20042;-85
2023/09/18 12:06:27;;;;;;;0.20;0.20;;;24.40;39.70;;;;;;4999273;28;20034;-86
2023/09/18 12:08:53;;;;;;;0.40;0.30;;;24.40;29.00;;;;;;5009598;28;20026;-84
2023/09/18 12:11:21;;;;;;;0.20;0.20;;;24.30;31.30;;;;;;5004764;28;20387;-82
2023/09/18 12:13:51;;;;;;;0.20;0.20;;;24.20;33.90;;;;;;4994895;28;20042;-85
2023/09/18 12:16:18;;;;;;;0.10;0.10;;;24.10;48.50;;;;;;4997139;28;20045;-82
2023/09/18 12:18:49;;;;;;;0.32;0.32;;;24.20;33.40;;;;;;5002550;28;20030;-86
2023/09/18 12:21:19;;;;;;;0.73;0.68;;;24.20;34.80;;;;;;4999326;28;20030;-80
2023/09/18 12:23:46;;;;;;;0.20;0.20;;;24.10;37.30;;;;;;5009237;28;20045;-84
2023/09/18 12:26:14;;;;;;;0.20;0.20;;;24.10;36.90;;;;;;5008544;28;20502;-81
2023/09/18 12:28:41;;;;;;;0.20;0.20;;;24.00;38.30;;;;;;5002646;28;20022;-81
2023/09/18 12:31:17;;;;;;;1.08;0.50;;;23.90;46.00;;;;;;4970418;28;1077838;-82
2023/09/18 12:33:44;;;;;;;0.55;0.55;;;24.00;48.50;;;;;;5010847;28;20033;-82
2023/09/18 12:36:14;;;;;;;0.20;0.20;;;24.00;45.80;;;;;;5007019;28;20030;-81
2023/09/18 12:38:40;;;;;;;0.20;0.20;;;24.10;36.30;;;;;;5009720;28;20041;-83
2023/09/18 12:41:07;;;;;;;2.13;0.93;;;24.30;33.50;;;;;;5015749;28;20046;-80
2023/09/18 12:43:35;;;;;;;0.30;0.30;;;24.30;38.60;;;;;;4999569;28;20037;-79
2023/09/18 12:46:04;;;;;;;0.90;0.85;;;24.30;21.20;;;;;;5005295;28;20033;-78
2023/09/18 12:48:30;;;;;;;0.77;0.40;;;24.20;22.60;;;;;;5000750;28;20022;-79
2023/09/18 12:51:03;;;;;;;0.73;0.35;;;24.20;25.10;;;;;;4998184;28;20034;-82
2023/09/18 12:53:29;;;;;;;0.20;0.20;;;24.20;30.60;;;;;;4998639;28;20045;-79